Time;durP1;ratioP1;P1;durP2;ratioP2;P2;SDS_P1;SDS_P2;PMS_P1;PMS_P2;Temp;Humidity;BMP_temperature;BMP_pressure;BME280_temperature;BME280_humidity;BME280_pressure;Samples;Min_cycle;Max_cycle;Signal;HPM_P1;HPM_P2
2022/01/31 00:01:15;;;;;;;40.67;9.60;;;5.40;99.90;;;;;;5094048;27;38641;-74
2022/01/31 00:03:41;;;;;;;38.00;9.90;;;5.30;99.90;;;;;;5080366;28;39519;-74
2022/01/31 00:06:07;;;;;;;33.90;8.57;;;5.30;99.90;;;;;;5079417;28;39058;-75
2022/01/31 00:08:33;;;;;;;35.67;10.00;;;5.20;99.90;;;;;;5080516;28;36031;-75
2022/01/31 00:10:59;;;;;;;44.63;9.37;;;5.20;99.90;;;;;;5082606;28;38747;-75
2022/01/31 00:15:58;;;;;;;29.88;9.48;;;5.20;99.90;;;;;;5080572;28;38582;-75
2022/01/31 00:18:24;;;;;;;41.10;10.30;;;5.20;99.90;;;;;;5080196;27;38108;-76
2022/01/31 00:20:51;;;;;;;32.80;9.73;;;5.20;99.90;;;;;;5078813;27;38567;-75
2022/01/31 00:23:17;;;;;;;43.57;10.47;;;5.20;99.90;;;;;;5078136;27;39133;-74
2022/01/31 00:25:43;;;;;;;33.77;10.33;;;5.20;99.90;;;;;;5076449;28;40600;-75
2022/01/31 00:28:10;;;;;;;29.73;9.67;;;5.20;99.90;;;;;;5078301;27;37501;-76
2022/01/31 00:30:36;;;;;;;43.17;9.37;;;5.20;99.90;;;;;;5078124;27;39565;-75
2022/01/31 00:33:02;;;;;;;35.20;9.10;;;5.20;99.90;;;;;;5078889;27;39731;-75
2022/01/31 00:35:28;;;;;;;32.13;8.93;;;5.20;99.90;;;;;;5079632;28;38780;-75
2022/01/31 00:37:55;;;;;;;30.07;8.80;;;5.20;99.90;;;;;;5078706;28;37644;-74
2022/01/31 00:40:21;;;;;;;42.57;9.40;;;5.20;99.90;;;;;;5076671;28;39663;-75
2022/01/31 00:42:47;;;;;;;41.97;9.83;;;5.20;99.90;;;;;;5082568;27;38559;-75
2022/01/31 00:45:17;;;;;;;39.80;9.20;;;5.20;99.90;;;;;;5081610;27;37971;-75
2022/01/31 00:47:48;;;;;;;33.07;10.20;;;5.20;99.90;;;;;;5079659;28;35984;-75
2022/01/31 00:50:16;;;;;;;30.87;9.67;;;5.20;99.90;;;;;;5077556;27;38512;-75
2022/01/31 00:52:43;;;;;;;34.00;9.27;;;5.30;99.90;;;;;;5079494;28;38223;-75
2022/01/31 00:55:12;;;;;;;29.23;8.17;;;5.30;99.90;;;;;;5080199;27;38201;-75
2022/01/31 00:57:40;;;;;;;34.57;9.23;;;5.30;99.90;;;;;;5082559;27;35792;-76
2022/01/31 01:00:08;;;;;;;42.27;9.67;;;5.30;99.90;;;;;;5073797;27;39506;-75
2022/01/31 01:02:34;;;;;;;30.77;9.37;;;5.30;99.90;;;;;;5078531;27;47378;-75
2022/01/31 01:05:00;;;;;;;38.77;9.67;;;5.40;99.90;;;;;;5083411;27;37057;-75
2022/01/31 01:07:26;;;;;;;29.40;9.67;;;5.40;99.90;;;;;;5079762;28;37693;-76
2022/01/31 01:09:52;;;;;;;36.87;11.30;;;5.40;99.90;;;;;;5081849;28;37978;-75
2022/01/31 01:12:19;;;;;;;25.07;10.43;;;5.40;99.90;;;;;;5080147;27;40471;-76
2022/01/31 01:14:46;;;;;;;26.23;9.10;;;5.50;99.90;;;;;;5085764;27;39268;-76
2022/01/31 01:17:12;;;;;;;28.13;10.83;;;5.50;99.90;;;;;;5079219;27;38321;-75
2022/01/31 01:19:38;;;;;;;28.73;9.80;;;5.50;99.90;;;;;;5081307;28;37387;-76
2022/01/31 01:22:05;;;;;;;29.07;9.20;;;5.60;99.90;;;;;;5079856;27;38174;-75
2022/01/31 01:24:31;;;;;;;28.10;8.30;;;5.60;99.90;;;;;;5081362;28;38363;-75
2022/01/31 01:26:57;;;;;;;29.90;8.20;;;5.70;99.90;;;;;;5086168;27;37097;-75
2022/01/31 01:29:23;;;;;;;25.10;7.47;;;5.70;99.90;;;;;;5081641;28;37874;-75
2022/01/31 01:31:50;;;;;;;23.27;7.13;;;5.80;99.90;;;;;;5077326;28;37560;-74
2022/01/31 01:34:17;;;;;;;31.97;7.63;;;5.90;99.90;;;;;;5077450;27;38934;-75
2022/01/31 01:36:45;;;;;;;20.40;6.47;;;5.90;99.90;;;;;;5084044;28;37409;-75
2022/01/31 01:39:12;;;;;;;24.40;5.50;;;6.00;99.90;;;;;;5077380;27;37820;-75
2022/01/31 01:41:39;;;;;;;24.77;5.67;;;6.10;99.90;;;;;;5080528;27;38682;-74
2022/01/31 01:44:05;;;;;;;26.07;6.23;;;6.20;99.90;;;;;;5081069;28;38242;-75
2022/01/31 01:46:31;;;;;;;28.73;6.67;;;6.30;99.90;;;;;;5081995;27;37253;-75
2022/01/31 01:48:57;;;;;;;32.33;7.83;;;6.40;99.90;;;;;;5083776;28;39700;-78
2022/01/31 01:51:23;;;;;;;30.17;6.30;;;6.40;99.90;;;;;;5078727;27;38365;-74
2022/01/31 01:53:49;;;;;;;34.60;6.67;;;6.50;99.90;;;;;;5083133;28;38857;-76
2022/01/31 01:56:15;;;;;;;35.00;6.20;;;6.60;99.90;;;;;;5082576;27;37240;-77
2022/01/31 01:58:43;;;;;;;43.27;6.70;;;6.70;99.90;;;;;;5084269;27;38931;-76
2022/01/31 02:01:11;;;;;;;41.07;6.47;;;6.70;99.90;;;;;;5083402;27;38514;-76
2022/01/31 02:03:39;;;;;;;44.40;6.23;;;6.80;99.90;;;;;;5082710;28;38799;-76
2022/01/31 02:06:07;;;;;;;40.67;7.00;;;6.90;99.90;;;;;;5079648;27;37192;-76
2022/01/31 02:08:42;;;;;;;44.63;6.27;;;6.90;99.90;;;;;;5081245;28;40574;-76
2022/01/31 02:11:10;;;;;;;43.07;7.17;;;6.90;99.90;;;;;;5081504;28;37348;-77
2022/01/31 02:13:37;;;;;;;26.43;5.00;;;7.00;99.90;;;;;;5080314;28;38146;-76
2022/01/31 02:16:06;;;;;;;32.47;5.43;;;7.10;99.90;;;;;;5085311;27;37231;-76
2022/01/31 02:18:32;;;;;;;29.13;6.20;;;7.10;99.90;;;;;;5083895;28;37843;-76
2022/01/31 02:20:59;;;;;;;25.53;5.20;;;7.20;99.90;;;;;;5081085;27;38573;-76
2022/01/31 02:23:27;;;;;;;31.33;5.47;;;7.30;99.90;;;;;;5078821;27;38057;-76
2022/01/31 02:26:01;;;;;;;35.73;5.37;;;7.40;99.90;;;;;;5081386;28;36138;-77
2022/01/31 02:28:29;;;;;;;23.37;4.73;;;7.30;99.90;;;;;;5078792;28;47698;-75
2022/01/31 02:30:56;;;;;;;25.43;4.27;;;7.30;99.90;;;;;;5077844;27;38287;-77
2022/01/31 02:33:23;;;;;;;25.30;5.13;;;7.40;99.90;;;;;;5080914;27;38222;-77
2022/01/31 02:35:53;;;;;;;25.80;3.70;;;7.40;99.90;;;;;;5079855;28;37897;-76
2022/01/31 02:38:19;;;;;;;22.60;4.63;;;7.40;99.90;;;;;;5080903;27;38906;-76
2022/01/31 02:40:46;;;;;;;21.73;4.23;;;7.40;99.90;;;;;;5079271;28;38717;-76
2022/01/31 02:43:18;;;;;;;19.40;4.60;;;7.40;99.90;;;;;;5082403;28;38372;-76
2022/01/31 02:45:44;;;;;;;23.23;4.70;;;7.40;99.90;;;;;;5080562;28;38034;-77
2022/01/31 02:48:13;;;;;;;23.10;4.17;;;7.50;99.90;;;;;;5081902;27;38837;-77
2022/01/31 02:50:40;;;;;;;18.27;3.27;;;7.50;99.90;;;;;;5080544;28;39887;-76
2022/01/31 02:53:12;;;;;;;25.23;4.30;;;7.50;99.90;;;;;;5082749;28;37767;-75
2022/01/31 02:55:40;;;;;;;24.33;3.70;;;7.60;99.90;;;;;;5077513;28;37539;-77
2022/01/31 02:58:06;;;;;;;22.67;3.40;;;7.60;99.90;;;;;;5079985;27;38584;-77
2022/01/31 03:00:32;;;;;;;18.97;3.37;;;7.70;99.90;;;;;;5079945;28;38736;-77
2022/01/31 03:02:58;;;;;;;18.03;3.33;;;7.60;99.90;;;;;;5079990;27;38054;-77
2022/01/31 03:05:24;;;;;;;19.47;4.33;;;7.60;99.90;;;;;;5080254;27;36979;-75
2022/01/31 03:07:51;;;;;;;17.33;3.10;;;7.60;99.90;;;;;;5078603;28;39712;-76
2022/01/31 03:10:17;;;;;;;15.10;3.57;;;7.70;99.90;;;;;;5080681;27;38985;-76
2022/01/31 03:12:43;;;;;;;15.80;3.40;;;7.80;99.90;;;;;;5095147;28;37361;-76
2022/01/31 03:15:10;;;;;;;20.93;3.10;;;7.70;99.90;;;;;;5083044;28;37634;-79
2022/01/31 03:17:36;;;;;;;20.50;3.03;;;7.70;99.90;;;;;;5079752;28;39976;-76
2022/01/31 03:20:02;;;;;;;19.37;3.53;;;7.60;99.90;;;;;;5083280;28;38897;-77
2022/01/31 03:22:30;;;;;;;16.17;2.87;;;7.60;99.90;;;;;;5081817;28;38219;-76
2022/01/31 03:24:56;;;;;;;12.77;2.77;;;7.60;99.90;;;;;;5078103;28;38154;-76
2022/01/31 03:27:23;;;;;;;25.97;3.17;;;7.60;99.90;;;;;;5078927;27;38354;-76
2022/01/31 03:29:49;;;;;;;17.47;2.83;;;7.60;99.90;;;;;;5082412;28;39118;-76
2022/01/31 03:32:15;;;;;;;17.83;2.80;;;7.60;99.90;;;;;;5076047;27;39014;-76
2022/01/31 03:34:41;;;;;;;18.23;3.23;;;7.60;99.90;;;;;;5074391;28;37481;-76
2022/01/31 03:37:07;;;;;;;22.03;3.77;;;7.50;99.90;;;;;;5075564;28;37752;-76
2022/01/31 03:39:34;;;;;;;16.43;3.50;;;7.60;99.90;;;;;;5080094;28;39416;-76
2022/01/31 03:42:00;;;;;;;21.50;3.13;;;7.70;99.90;;;;;;5077771;27;38703;-76
2022/01/31 03:44:26;;;;;;;21.83;3.37;;;7.70;99.90;;;;;;5076544;27;37059;-76
2022/01/31 03:46:52;;;;;;;24.60;4.67;;;7.60;99.90;;;;;;5072149;28;39682;-76
2022/01/31 03:49:18;;;;;;;27.17;3.63;;;7.40;99.90;;;;;;5076341;28;39227;-76
2022/01/31 03:51:44;;;;;;;18.13;2.90;;;7.50;99.90;;;;;;5075290;27;38013;-77
2022/01/31 03:54:10;;;;;;;19.87;3.83;;;7.40;99.90;;;;;;5078650;27;35385;-77
2022/01/31 03:56:37;;;;;;;22.07;3.97;;;7.40;99.90;;;;;;5078240;28;39505;-77
2022/01/31 03:59:04;;;;;;;23.80;3.30;;;7.40;99.90;;;;;;5082242;28;38307;-76
2022/01/31 04:01:30;;;;;;;24.87;2.93;;;7.50;99.90;;;;;;5080803;28;48887;-75
2022/01/31 04:03:56;;;;;;;18.53;3.70;;;7.50;99.90;;;;;;5078424;28;37546;-76
2022/01/31 04:06:23;;;;;;;12.87;2.67;;;7.50;99.90;;;;;;5077379;27;38996;-76
2022/01/31 04:08:50;;;;;;;24.93;4.20;;;7.60;99.90;;;;;;5075157;28;40908;-76
2022/01/31 04:11:16;;;;;;;17.93;3.30;;;7.70;99.90;;;;;;5083356;27;38411;-76
2022/01/31 04:13:42;;;;;;;19.90;2.87;;;7.70;99.90;;;;;;5080359;27;37938;-76
2022/01/31 04:16:08;;;;;;;21.27;5.13;;;7.70;99.90;;;;;;5082297;27;39536;-77
2022/01/31 04:18:35;;;;;;;15.93;2.83;;;7.80;99.90;;;;;;5079602;28;38039;-76
2022/01/31 04:21:01;;;;;;;16.10;2.53;;;7.70;99.90;;;;;;5082501;27;39183;-77
2022/01/31 04:23:28;;;;;;;16.90;2.23;;;7.70;99.90;;;;;;5077542;28;47262;-76
2022/01/31 04:26:06;;;;;;;14.53;2.37;;;7.70;99.90;;;;;;5079602;28;38795;-76
2022/01/31 04:28:40;;;;;;;15.30;3.00;;;7.70;99.90;;;;;;5077847;28;47307;-76
2022/01/31 04:33:49;;;;;;;19.50;3.13;;;7.80;99.90;;;;;;5079612;27;37722;-77
2022/01/31 04:36:16;;;;;;;21.70;3.37;;;7.90;99.90;;;;;;5080279;27;39863;-76
2022/01/31 04:38:47;;;;;;;19.30;2.47;;;7.90;99.90;;;;;;5080512;28;36914;-76
2022/01/31 04:41:14;;;;;;;24.93;4.80;;;7.90;99.90;;;;;;5080559;27;38707;-76
2022/01/31 04:43:40;;;;;;;16.17;3.60;;;7.90;99.90;;;;;;5085937;28;38333;-75
2022/01/31 04:46:08;;;;;;;16.57;3.03;;;7.90;99.90;;;;;;5085331;27;39868;-75
2022/01/31 04:48:34;;;;;;;18.17;3.00;;;7.90;99.90;;;;;;5083242;28;38731;-75
2022/01/31 04:51:01;;;;;;;21.53;3.80;;;7.90;99.90;;;;;;5085534;27;38701;-75
2022/01/31 04:53:28;;;;;;;19.90;2.40;;;7.80;99.90;;;;;;5085641;27;48683;-75
2022/01/31 04:55:54;;;;;;;20.13;2.93;;;7.90;99.90;;;;;;5083915;28;39706;-76
2022/01/31 04:58:22;;;;;;;21.77;2.73;;;7.90;99.90;;;;;;5081546;27;37472;-75
2022/01/31 05:00:49;;;;;;;23.00;4.03;;;7.80;99.90;;;;;;5079349;28;38035;-75
2022/01/31 05:03:18;;;;;;;16.40;2.90;;;7.80;99.90;;;;;;5082304;27;38847;-76
2022/01/31 05:05:45;;;;;;;23.53;3.97;;;7.70;99.90;;;;;;5083985;28;38413;-76
2022/01/31 05:08:12;;;;;;;19.97;2.83;;;7.50;99.90;;;;;;5082756;28;38944;-77
2022/01/31 05:10:47;;;;;;;16.80;3.50;;;7.40;99.90;;;;;;5082475;28;38522;-77
2022/01/31 05:13:15;;;;;;;23.70;3.43;;;7.40;99.90;;;;;;5079293;27;37334;-77
2022/01/31 05:15:42;;;;;;;19.93;3.53;;;7.40;99.90;;;;;;5084041;28;39623;-76
2022/01/31 05:18:08;;;;;;;12.57;3.30;;;7.40;99.90;;;;;;5082010;27;38549;-80
2022/01/31 05:20:34;;;;;;;17.83;3.47;;;7.50;99.90;;;;;;5083860;28;38603;-76
2022/01/31 05:23:00;;;;;;;15.63;3.13;;;7.50;99.90;;;;;;5085108;27;36888;-76
2022/01/31 05:25:27;;;;;;;16.83;3.03;;;7.50;99.90;;;;;;5082888;28;37116;-76
2022/01/31 05:27:53;;;;;;;20.17;2.90;;;7.50;99.90;;;;;;5082730;28;39018;-77
2022/01/31 05:30:21;;;;;;;14.67;2.90;;;7.60;99.90;;;;;;5082220;27;38416;-75
2022/01/31 05:32:47;;;;;;;22.63;3.70;;;7.60;99.90;;;;;;5082839;28;38645;-80
2022/01/31 05:35:16;;;;;;;17.20;3.60;;;7.60;99.90;;;;;;5085398;27;37648;-77
2022/01/31 05:37:43;;;;;;;21.23;2.87;;;7.60;99.90;;;;;;5083775;27;38565;-77
2022/01/31 05:40:09;;;;;;;22.17;3.63;;;7.50;99.90;;;;;;5080336;27;38497;-76
2022/01/31 05:42:36;;;;;;;20.47;2.77;;;7.30;99.90;;;;;;5078937;27;37351;-77
2022/01/31 05:45:02;;;;;;;19.77;2.50;;;7.20;99.90;;;;;;5081628;28;39354;-76
2022/01/31 05:47:28;;;;;;;12.03;2.80;;;7.20;99.90;;;;;;5077352;27;38327;-77
2022/01/31 05:49:54;;;;;;;15.07;3.00;;;7.20;99.90;;;;;;5077941;27;38769;-76
2022/01/31 05:52:20;;;;;;;33.10;4.00;;;7.20;99.90;;;;;;5079428;27;37750;-77
2022/01/31 05:54:47;;;;;;;20.93;3.23;;;7.20;99.90;;;;;;5079386;28;40805;-77
2022/01/31 05:57:13;;;;;;;21.33;3.80;;;7.20;99.90;;;;;;5082020;27;38314;-77
2022/01/31 05:59:41;;;;;;;18.43;3.87;;;7.20;99.90;;;;;;5083901;28;38106;-77
2022/01/31 06:02:07;;;;;;;27.60;5.07;;;7.20;99.90;;;;;;5079374;27;37592;-78
2022/01/31 06:04:34;;;;;;;23.87;4.90;;;7.30;99.90;;;;;;5080932;28;39772;-77
2022/01/31 06:07:01;;;;;;;31.47;5.77;;;7.30;99.90;;;;;;5080542;27;38483;-76
2022/01/31 06:09:28;;;;;;;27.13;4.83;;;7.30;99.90;;;;;;5078470;27;47100;-78
2022/01/31 06:11:55;;;;;;;20.27;3.30;;;7.40;99.90;;;;;;5076437;27;37219;-77
2022/01/31 06:14:21;;;;;;;38.10;5.33;;;7.40;99.90;;;;;;5072152;27;39470;-77
2022/01/31 06:16:47;;;;;;;23.07;4.53;;;7.30;99.90;;;;;;5073269;27;38393;-77
2022/01/31 06:19:13;;;;;;;18.63;3.27;;;7.30;99.90;;;;;;5075674;27;38497;-78
2022/01/31 06:21:40;;;;;;;23.00;3.40;;;7.40;99.90;;;;;;5079867;27;37053;-77
2022/01/31 06:24:09;;;;;;;28.07;3.70;;;7.40;99.90;;;;;;5083756;27;39118;-77
2022/01/31 06:26:37;;;;;;;23.20;4.17;;;7.40;99.90;;;;;;5083295;28;38420;-77
2022/01/31 06:29:04;;;;;;;20.73;3.77;;;7.40;99.90;;;;;;5100794;28;40674;-77
2022/01/31 06:31:31;;;;;;;29.57;3.90;;;7.40;99.90;;;;;;5084365;27;37757;-77
2022/01/31 06:33:58;;;;;;;23.60;4.37;;;7.40;99.90;;;;;;5085376;27;40765;-77
2022/01/31 06:36:24;;;;;;;22.23;4.23;;;7.40;99.90;;;;;;5079483;27;38526;-77
2022/01/31 06:38:51;;;;;;;26.80;4.03;;;7.50;99.90;;;;;;5084995;27;38588;-77
2022/01/31 06:41:18;;;;;;;31.97;5.43;;;7.50;99.90;;;;;;5076976;28;37990;-78
2022/01/31 06:43:46;;;;;;;24.37;3.83;;;7.50;99.90;;;;;;5080400;28;39699;-78
2022/01/31 06:46:13;;;;;;;25.63;4.37;;;7.50;99.90;;;;;;5081298;28;38573;-76
2022/01/31 06:48:40;;;;;;;26.53;3.90;;;7.60;99.90;;;;;;5077464;28;38147;-77
2022/01/31 06:51:06;;;;;;;21.97;4.60;;;7.50;99.90;;;;;;5080370;27;37879;-78
2022/01/31 06:53:32;;;;;;;27.37;4.47;;;7.60;99.90;;;;;;5078992;28;39561;-77
2022/01/31 06:55:59;;;;;;;37.43;4.93;;;7.70;99.90;;;;;;5078771;27;38716;-78
2022/01/31 06:58:26;;;;;;;32.60;4.57;;;7.80;99.90;;;;;;5084033;27;39195;-77
2022/01/31 07:00:53;;;;;;;30.60;5.27;;;7.80;99.90;;;;;;5080060;27;37283;-77
2022/01/31 07:03:19;;;;;;;23.93;4.10;;;7.80;99.90;;;;;;5099522;27;37781;-77
2022/01/31 07:05:46;;;;;;;31.30;4.23;;;7.80;99.90;;;;;;5086738;27;40135;-76
2022/01/31 07:08:13;;;;;;;37.57;4.50;;;7.70;99.90;;;;;;5083562;28;39496;-77
2022/01/31 07:10:42;;;;;;;32.13;5.47;;;7.50;99.90;;;;;;5084729;28;38855;-77
2022/01/31 07:13:23;;;;;;;37.07;6.20;;;7.30;99.90;;;;;;5085491;27;39025;-77
2022/01/31 07:15:49;;;;;;;32.23;5.13;;;7.30;99.90;;;;;;5080838;28;39561;-76
2022/01/31 07:18:15;;;;;;;25.80;5.10;;;7.30;99.90;;;;;;5079334;27;38736;-78
2022/01/31 07:20:43;;;;;;;33.10;5.07;;;7.50;99.90;;;;;;5080616;28;38745;-77
2022/01/31 07:23:51;;;;;;;28.97;4.63;;;7.50;99.90;;;;;;5083532;28;39769;-77
2022/01/31 07:25:57;;;;;;;32.37;5.57;;;7.50;99.90;;;;;;5078507;27;38729;-77
2022/01/31 07:28:23;;;;;;;31.20;6.47;;;7.40;99.90;;;;;;5077152;27;39225;-77
2022/01/31 07:30:51;;;;;;;37.50;5.63;;;7.40;99.90;;;;;;5078883;28;39001;-77
2022/01/31 07:33:18;;;;;;;32.37;5.93;;;7.40;99.90;;;;;;5077995;28;42435;-78
2022/01/31 07:35:47;;;;;;;40.33;7.33;;;7.40;99.90;;;;;;5080714;28;38405;-77
2022/01/31 07:38:13;;;;;;;38.20;5.60;;;7.40;99.90;;;;;;5081794;27;37735;-78
2022/01/31 07:40:40;;;;;;;27.07;4.83;;;7.50;99.90;;;;;;5083012;27;35864;-78
2022/01/31 07:43:06;;;;;;;28.50;4.93;;;7.40;99.90;;;;;;5080875;28;39347;-77
2022/01/31 07:45:33;;;;;;;31.93;5.13;;;7.50;99.90;;;;;;5081991;27;38491;-77
2022/01/31 07:47:59;;;;;;;34.03;6.77;;;7.50;99.90;;;;;;5078537;28;37262;-77
2022/01/31 07:50:26;;;;;;;30.23;5.97;;;7.50;99.90;;;;;;5078793;28;37183;-76
2022/01/31 07:52:52;;;;;;;28.87;4.60;;;7.50;99.90;;;;;;5079490;27;39609;-77
2022/01/31 07:55:18;;;;;;;27.70;4.83;;;7.50;99.90;;;;;;5084511;28;37976;-77
2022/01/31 07:57:46;;;;;;;28.60;5.10;;;7.50;99.90;;;;;;5083466;28;38988;-77
2022/01/31 08:00:13;;;;;;;38.17;5.50;;;7.50;99.90;;;;;;5077102;27;37262;-76
2022/01/31 08:02:43;;;;;;;33.40;6.97;;;7.50;99.90;;;;;;5083732;27;38513;-79
2022/01/31 08:05:09;;;;;;;32.07;7.10;;;7.60;99.90;;;;;;5080529;28;37516;-76
2022/01/31 08:07:36;;;;;;;32.67;6.10;;;7.70;99.90;;;;;;5082501;27;38171;-76
2022/01/31 08:10:04;;;;;;;36.57;6.07;;;7.60;99.90;;;;;;5086034;27;37281;-78
2022/01/31 08:12:32;;;;;;;31.20;6.03;;;7.60;99.90;;;;;;5087773;28;47279;-76
2022/01/31 08:15:03;;;;;;;33.83;6.40;;;7.70;99.90;;;;;;5085520;28;39153;-78
2022/01/31 08:17:30;;;;;;;29.50;4.87;;;7.70;99.90;;;;;;5085074;27;47648;-76
2022/01/31 08:19:56;;;;;;;34.67;5.57;;;7.70;99.90;;;;;;5080109;27;37178;-77
2022/01/31 08:22:22;;;;;;;30.20;5.43;;;7.80;99.90;;;;;;5083531;27;38461;-77
2022/01/31 08:24:48;;;;;;;32.83;5.27;;;7.80;99.90;;;;;;5082836;27;39035;-78
2022/01/31 08:27:14;;;;;;;35.50;5.50;;;7.80;99.90;;;;;;5084887;27;37087;-77
2022/01/31 08:29:40;;;;;;;30.87;4.57;;;7.60;99.90;;;;;;5083574;28;39128;-77
2022/01/31 08:32:21;;;;;;;27.47;5.33;;;7.40;99.90;;;;;;5082352;27;38736;-76
2022/01/31 08:37:33;;;;;;;27.23;3.83;;;7.00;99.90;;;;;;5084059;28;49598;-76
2022/01/31 08:39:59;;;;;;;29.70;4.10;;;7.00;99.90;;;;;;5084720;28;39014;-76
2022/01/31 08:42:28;;;;;;;31.27;4.67;;;7.00;99.90;;;;;;5085365;27;39505;-79
2022/01/31 08:44:54;;;;;;;31.03;4.90;;;7.10;99.90;;;;;;5085407;28;38543;-77
2022/01/31 08:47:20;;;;;;;37.73;6.27;;;7.20;99.90;;;;;;5079091;27;38382;-77
2022/01/31 08:49:46;;;;;;;31.73;4.77;;;7.20;99.90;;;;;;5085625;27;37343;-78
2022/01/31 08:52:12;;;;;;;42.53;5.47;;;7.30;99.90;;;;;;5081771;28;40599;-76
2022/01/31 08:54:40;;;;;;;40.83;6.43;;;7.30;99.90;;;;;;5080472;28;38597;-77
2022/01/31 08:57:07;;;;;;;41.53;6.83;;;7.40;99.90;;;;;;5082127;27;37552;-76
2022/01/31 08:59:40;;;;;;;37.30;5.50;;;7.40;99.90;;;;;;5043554;27;1158415;-76
2022/01/31 09:02:12;;;;;;;41.17;6.80;;;7.40;99.90;;;;;;5081664;27;39646;-77
2022/01/31 09:04:56;;;;;;;38.33;5.97;;;7.50;99.90;;;;;;5084072;28;39997;-77
2022/01/31 09:07:24;;;;;;;39.77;6.60;;;7.50;99.90;;;;;;5085682;27;37674;-78
2022/01/31 09:09:54;;;;;;;43.27;5.63;;;7.50;99.90;;;;;;5086113;28;36020;-77
2022/01/31 09:12:24;;;;;;;43.77;6.83;;;7.50;99.90;;;;;;5089539;27;38689;-77
2022/01/31 09:14:50;;;;;;;39.53;6.40;;;7.50;99.90;;;;;;5088234;28;37355;-79
2022/01/31 09:17:16;;;;;;;51.07;7.03;;;7.50;99.90;;;;;;5086653;27;37159;-77
2022/01/31 09:19:42;;;;;;;37.93;6.90;;;7.60;99.90;;;;;;5084879;28;35893;-79
2022/01/31 09:22:08;;;;;;;38.97;6.40;;;7.60;99.90;;;;;;5086457;27;38608;-77
2022/01/31 09:24:39;;;;;;;45.10;8.10;;;7.70;99.90;;;;;;5085111;28;39122;-77
2022/01/31 09:27:07;;;;;;;38.43;6.63;;;7.70;99.90;;;;;;5083809;27;38543;-78
2022/01/31 09:29:34;;;;;;;37.17;6.63;;;7.80;99.90;;;;;;5083400;28;37459;-77
2022/01/31 09:32:03;;;;;;;50.33;7.43;;;7.90;99.90;;;;;;5082516;27;39565;-79
2022/01/31 09:34:31;;;;;;;45.10;7.17;;;8.00;99.90;;;;;;5088927;27;48689;-77
2022/01/31 09:37:01;;;;;;;55.43;7.80;;;8.00;99.90;;;;;;5080976;27;37304;-77
2022/01/31 09:39:27;;;;;;;45.70;7.13;;;8.00;99.90;;;;;;5085224;28;47094;-77
2022/01/31 09:41:56;;;;;;;41.50;7.63;;;8.10;99.90;;;;;;5086100;28;39361;-78
2022/01/31 09:44:43;;;;;;;46.23;8.73;;;8.10;99.90;;;;;;5085119;28;37240;-76
2022/01/31 09:50:05;;;;;;;44.60;6.70;;;8.10;99.90;;;;;;5028135;27;37706;-78
2022/01/31 09:52:31;;;;;;;41.37;6.77;;;8.10;99.90;;;;;;5083908;28;38753;-80
2022/01/31 09:54:57;;;;;;;33.40;6.77;;;8.30;99.90;;;;;;5086402;28;38152;-77
2022/01/31 09:57:23;;;;;;;35.33;6.80;;;8.40;99.90;;;;;;5086524;27;37346;-77
2022/01/31 09:59:49;;;;;;;43.70;6.43;;;8.30;99.90;;;;;;5082183;27;37378;-77
2022/01/31 10:02:16;;;;;;;42.67;6.83;;;8.20;99.90;;;;;;5081559;28;37379;-77
2022/01/31 10:04:48;;;;;;;38.57;7.10;;;8.00;99.90;;;;;;5083835;27;38154;-77
2022/01/31 10:07:15;;;;;;;43.45;5.95;;;7.90;99.90;;;;;;5083659;27;37865;-77
2022/01/31 10:09:46;;;;;;;46.57;6.30;;;7.90;99.90;;;;;;5084170;27;37286;-77
2022/01/31 10:17:40;;;;;;;40.60;6.57;;;7.90;99.90;;;;;;5073200;27;49588;-77
2022/01/31 10:20:19;;;;;;;50.55;8.30;;;7.90;99.90;;;;;;5093313;27;37981;-77
2022/01/31 10:22:46;;;;;;;50.17;8.07;;;7.90;99.90;;;;;;5082480;28;39926;-76
2022/01/31 10:25:17;;;;;;;45.90;8.70;;;7.90;99.90;;;;;;5080531;27;38831;-77
2022/01/31 10:27:53;;;;;;;47.80;7.30;;;8.00;99.90;;;;;;5083401;28;37128;-76
2022/01/31 10:30:24;;;;;;;43.63;7.63;;;8.00;99.90;;;;;;5081245;27;36175;-76
2022/01/31 10:32:54;;;;;;;44.90;8.17;;;8.10;99.90;;;;;;5079846;28;39520;-76
2022/01/31 10:35:31;;;;;;;35.13;7.33;;;8.10;99.90;;;;;;5078368;27;37037;-75
2022/01/31 10:38:02;;;;;;;50.87;7.77;;;8.10;99.90;;;;;;5083753;28;37401;-76
2022/01/31 10:46:10;;;;;;;36.50;7.17;;;8.10;99.90;;;;;;5083062;27;39506;-78
2022/01/31 10:56:50;;;;;;;44.50;7.10;;;8.10;99.90;;;;;;5085321;27;39055;-76
2022/01/31 10:59:41;;;;;;;56.07;9.37;;;8.10;99.90;;;;;;5078565;27;37956;-79
2022/01/31 11:02:24;;;;;;;50.70;8.60;;;8.10;99.90;;;;;;5077644;27;37084;-76
2022/01/31 11:04:52;;;;;;;41.27;7.43;;;8.10;99.90;;;;;;5082454;28;38004;-79
2022/01/31 11:07:20;;;;;;;46.70;9.33;;;8.10;99.90;;;;;;5075758;28;37280;-79
2022/01/31 11:09:49;;;;;;;50.93;8.60;;;8.10;99.90;;;;;;5081499;27;38149;-76
2022/01/31 11:12:16;;;;;;;51.53;8.90;;;8.20;99.90;;;;;;5080073;27;36347;-76
2022/01/31 11:14:45;;;;;;;51.13;8.17;;;8.10;99.90;;;;;;5084890;28;39570;-77
2022/01/31 11:17:13;;;;;;;53.13;8.30;;;8.10;99.90;;;;;;5079299;27;38576;-76
2022/01/31 11:19:42;;;;;;;47.37;8.50;;;8.10;99.90;;;;;;5081496;28;38777;-77
2022/01/31 11:22:15;;;;;;;57.87;8.53;;;8.10;99.90;;;;;;5081196;27;36943;-80
2022/01/31 11:24:52;;;;;;;41.83;7.97;;;8.00;99.90;;;;;;5085756;27;39792;-76
2022/01/31 11:27:23;;;;;;;60.40;9.03;;;8.00;99.90;;;;;;5083278;27;38542;-76
2022/01/31 11:29:55;;;;;;;43.70;7.70;;;8.00;99.90;;;;;;5081712;28;36668;-77
2022/01/31 11:32:26;;;;;;;42.25;7.40;;;8.00;99.90;;;;;;5077583;28;37509;-78
2022/01/31 11:34:53;;;;;;;45.30;8.33;;;7.90;99.90;;;;;;5082824;27;38701;-77
2022/01/31 11:37:22;;;;;;;48.13;7.73;;;7.80;99.90;;;;;;5083836;27;38716;-78
2022/01/31 11:39:57;;;;;;;58.60;8.73;;;7.60;99.90;;;;;;5081563;27;37997;-78
2022/01/31 11:42:25;;;;;;;56.47;8.87;;;7.40;99.90;;;;;;5080739;27;37573;-77
2022/01/31 11:44:55;;;;;;;48.37;7.97;;;7.10;99.90;;;;;;5085102;27;38509;-77
2022/01/31 11:47:23;;;;;;;58.97;8.90;;;6.90;99.90;;;;;;5085424;27;38286;-78
2022/01/31 11:49:56;;;;;;;47.20;8.00;;;6.70;99.90;;;;;;5085743;28;37983;-74
2022/01/31 11:52:24;;;;;;;45.80;7.97;;;6.70;99.90;;;;;;5083892;27;37286;-74
2022/01/31 11:54:59;;;;;;;71.23;9.27;;;6.70;99.90;;;;;;5085225;28;38783;-76
2022/01/31 11:57:29;;;;;;;54.40;8.37;;;6.60;99.90;;;;;;5082152;27;39530;-75
2022/01/31 12:00:11;;;;;;;73.60;10.40;;;6.60;99.90;;;;;;5076401;28;37333;-75
2022/01/31 12:02:43;;;;;;;67.47;9.63;;;6.60;99.90;;;;;;5085138;28;47243;-77
2022/01/31 12:05:16;;;;;;;50.20;9.27;;;6.60;99.90;;;;;;5082402;28;37772;-76
2022/01/31 12:07:44;;;;;;;60.00;9.33;;;6.60;99.90;;;;;;5099736;28;37181;-76
2022/01/31 12:10:18;;;;;;;59.70;10.60;;;6.60;99.90;;;;;;5084040;27;38079;-76
2022/01/31 12:13:25;;;;;;;50.40;10.07;;;6.60;99.90;;;;;;5085524;28;36317;-77
2022/01/31 12:15:59;;;;;;;61.20;9.80;;;6.70;99.90;;;;;;5079417;27;48368;-79
2022/01/31 12:23:48;;;;;;;51.27;9.47;;;6.80;99.90;;;;;;5079850;28;50263;-76
2022/01/31 12:26:32;;;;;;;56.60;9.77;;;6.80;99.90;;;;;;5080970;27;38076;-76
2022/01/31 12:29:15;;;;;;;60.93;8.63;;;6.90;99.90;;;;;;5084585;28;37759;-77
2022/01/31 12:31:59;;;;;;;50.63;7.82;;;6.90;99.90;;;;;;5080981;28;47542;-76
2022/01/31 12:34:28;;;;;;;51.27;8.03;;;7.00;99.90;;;;;;5079820;27;36817;-76
2022/01/31 12:37:14;;;;;;;62.70;9.53;;;7.10;99.90;;;;;;5084765;27;38399;-76
2022/01/31 12:39:43;;;;;;;51.43;8.20;;;7.20;99.90;;;;;;5082601;28;48302;-78
2022/01/31 12:45:27;;;;;;;53.83;8.90;;;7.20;99.90;;;;;;5083892;27;38891;-80
2022/01/31 12:48:06;;;;;;;54.20;8.40;;;7.30;99.90;;;;;;5083232;28;38945;-76
2022/01/31 12:50:35;;;;;;;66.27;9.87;;;7.40;99.90;;;;;;5086973;27;49087;-76
2022/01/31 12:53:05;;;;;;;61.27;8.63;;;7.40;99.90;;;;;;5078830;27;38081;-76
2022/01/31 12:55:33;;;;;;;48.60;8.60;;;7.40;99.90;;;;;;5084809;28;47150;-76
2022/01/31 12:57:59;;;;;;;48.97;8.37;;;7.40;99.90;;;;;;5084546;28;39537;-76
2022/01/31 13:00:43;;;;;;;59.17;9.90;;;7.40;99.90;;;;;;5084456;27;39002;-79
2022/01/31 13:03:10;;;;;;;51.73;9.40;;;7.40;99.90;;;;;;5083130;27;39652;-78
2022/01/31 13:05:39;;;;;;;61.57;12.07;;;7.40;99.90;;;;;;5080612;28;37910;-78
2022/01/31 13:08:25;;;;;;;44.80;7.60;;;7.40;99.90;;;;;;5083277;28;39225;-78
2022/01/31 13:10:52;;;;;;;43.77;7.10;;;7.40;99.90;;;;;;5085543;28;37569;-76
2022/01/31 13:13:33;;;;;;;50.43;8.77;;;7.40;99.90;;;;;;5086063;27;37096;-78
2022/01/31 13:16:10;;;;;;;63.50;9.53;;;7.40;99.90;;;;;;5087035;28;37348;-78
2022/01/31 13:18:38;;;;;;;64.60;10.43;;;7.40;99.90;;;;;;5086575;28;47697;-79
2022/01/31 13:21:06;;;;;;;65.57;9.47;;;7.40;99.90;;;;;;5087898;27;38231;-76
2022/01/31 13:23:39;;;;;;;51.30;9.43;;;7.50;99.90;;;;;;5085074;28;38055;-78
2022/01/31 13:26:07;;;;;;;52.07;8.40;;;7.40;99.90;;;;;;5084712;28;37541;-79
2022/01/31 13:28:34;;;;;;;61.60;9.90;;;7.20;99.90;;;;;;5083806;28;38776;-80
2022/01/31 13:31:08;;;;;;;42.60;9.17;;;7.10;99.90;;;;;;5084853;28;37554;-77